Terminal Aerodrome Forecast
Issued by NWS Chicago, IL

Home | Current Version | Previous Version | Graphics & Text | Print | Product List | Glossary On
Versions: 1 2 3 4 5 6 7 8 9 10 11 12 13 14 15 16 17 18 19 20 21 22 23 24 25 26 27 28 29 30
000
FTUS43 KLOT 290254 AAA
TAFRFD
TAF AMD
KRFD 290254Z 2903/2924 17007KT P6SM VCSH BKN070 BKN100
     FM290700 20009KT 5SM SHRA VCTS SCT020 OVC040CB
     FM291100 29011G16KT P6SM SCT040 BKN140
     FM291800 29013G20KT P6SM SCT150=

USA.gov is the U.S. government's official web portal to all federal, state and local government web resources and services.